sensor_id;sensor_type;location;lat;lon;timestamp;pressure;altitude;pressure_sealevel;temperature;humidity
33859;BME280;20156;47.486;12.074;2023-02-13T00:00:30;95137.53;;;-0.98;100.00
33859;BME280;20156;47.486;12.074;2023-02-13T00:02:56;95134.56;;;-1.03;100.00
33859;BME280;20156;47.486;12.074;2023-02-13T00:05:21;95128.94;;;-0.97;100.00
33859;BME280;20156;47.486;12.074;2023-02-13T00:07:47;95125.84;;;-1.10;100.00
33859;BME280;20156;47.486;12.074;2023-02-13T00:10:12;95117.78;;;-0.96;100.00
33859;BME280;20156;47.486;12.074;2023-02-13T00:12:38;95107.28;;;-0.93;100.00
33859;BME280;20156;47.486;12.074;2023-02-13T00:15:04;95144.88;;;-1.43;100.00
33859;BME280;20156;47.486;12.074;2023-02-13T00:17:29;95160.00;;;-1.52;100.00
33859;BME280;20156;47.486;12.074;2023-02-13T00:19:55;95145.97;;;-1.27;100.00
33859;BME280;20156;47.486;12.074;2023-02-13T00:22:20;95127.84;;;-1.14;100.00
33859;BME280;20156;47.486;12.074;2023-02-13T00:24:46;95125.59;;;-1.17;100.00
33859;BME280;20156;47.486;12.074;2023-02-13T00:27:11;95132.97;;;-1.14;100.00
33859;BME280;20156;47.486;12.074;2023-02-13T00:29:37;95117.25;;;-1.00;100.00
33859;BME280;20156;47.486;12.074;2023-02-13T00:32:02;95125.28;;;-1.04;100.00
33859;BME280;20156;47.486;12.074;2023-02-13T00:34:28;95143.16;;;-1.33;100.00
33859;BME280;20156;47.486;12.074;2023-02-13T00:36:53;95155.06;;;-1.43;100.00
33859;BME280;20156;47.486;12.074;2023-02-13T00:39:19;95143.53;;;-1.38;100.00
33859;BME280;20156;47.486;12.074;2023-02-13T00:41:44;95132.00;;;-1.32;100.00
33859;BME280;20156;47.486;12.074;2023-02-13T00:44:10;95124.22;;;-1.31;100.00
33859;BME280;20156;47.486;12.074;2023-02-13T00:46:35;95110.78;;;-1.23;100.00
33859;BME280;20156;47.486;12.074;2023-02-13T00:49:01;95107.03;;;-1.19;100.00
33859;BME280;20156;47.486;12.074;2023-02-13T00:51:27;95108.09;;;-1.22;100.00
33859;BME280;20156;47.486;12.074;2023-02-13T00:53:52;95117.09;;;-1.46;100.00
33859;BME280;20156;47.486;12.074;2023-02-13T00:56:18;95125.69;;;-1.47;100.00
33859;BME280;20156;47.486;12.074;2023-02-13T00:58:43;95119.63;;;-1.46;100.00
33859;BME280;20156;47.486;12.074;2023-02-13T01:01:09;95108.63;;;-1.47;100.00
33859;BME280;20156;47.486;12.074;2023-02-13T01:03:35;95104.47;;;-1.48;100.00
33859;BME280;20156;47.486;12.074;2023-02-13T01:06:00;95117.50;;;-1.51;100.00
33859;BME280;20156;47.486;12.074;2023-02-13T01:08:26;95110.06;;;-1.54;100.00
33859;BME280;20156;47.486;12.074;2023-02-13T01:10:53;95085.94;;;-1.40;100.00
33859;BME280;20156;47.486;12.074;2023-02-13T01:13:18;95082.31;;;-1.38;100.00
33859;BME280;20156;47.486;12.074;2023-02-13T01:15:45;95064.47;;;-1.28;100.00
33859;BME280;20156;47.486;12.074;2023-02-13T01:18:15;95045.69;;;-1.27;100.00
33859;BME280;20156;47.486;12.074;2023-02-13T01:20:42;95062.19;;;-1.31;100.00
33859;BME280;20156;47.486;12.074;2023-02-13T01:23:08;95067.56;;;-1.34;100.00
33859;BME280;20156;47.486;12.074;2023-02-13T01:25:34;95066.34;;;-1.40;100.00
33859;BME280;20156;47.486;12.074;2023-02-13T01:28:03;95096.00;;;-1.68;100.00
33859;BME280;20156;47.486;12.074;2023-02-13T01:30:28;95113.53;;;-1.74;100.00
33859;BME280;20156;47.486;12.074;2023-02-13T01:32:54;95127.06;;;-1.84;100.00
33859;BME280;20156;47.486;12.074;2023-02-13T01:35:19;95133.78;;;-1.83;100.00
33859;BME280;20156;47.486;12.074;2023-02-13T01:37:45;95107.09;;;-1.69;100.00
33859;BME280;20156;47.486;12.074;2023-02-13T01:40:12;95094.38;;;-1.59;100.00
33859;BME280;20156;47.486;12.074;2023-02-13T01:42:37;95085.25;;;-1.62;100.00
33859;BME280;20156;47.486;12.074;2023-02-13T01:45:05;95088.03;;;-1.74;100.00
33859;BME280;20156;47.486;12.074;2023-02-13T01:47:46;95089.81;;;-1.65;100.00
33859;BME280;20156;47.486;12.074;2023-02-13T01:50:30;95079.75;;;-1.57;100.00
33859;BME280;20156;47.486;12.074;2023-02-13T01:53:06;95071.31;;;-1.58;100.00
33859;BME280;20156;47.486;12.074;2023-02-13T01:55:35;95093.31;;;-1.66;100.00
33859;BME280;20156;47.486;12.074;2023-02-13T01:58:06;95093.81;;;-1.72;100.00
33859;BME280;20156;47.486;12.074;2023-02-13T02:00:34;95141.03;;;-1.78;100.00
33859;BME280;20156;47.486;12.074;2023-02-13T02:03:10;95126.81;;;-1.80;100.00
33859;BME280;20156;47.486;12.074;2023-02-13T02:05:37;95119.97;;;-1.80;100.00
33859;BME280;20156;47.486;12.074;2023-02-13T02:08:06;95103.34;;;-1.74;100.00
33859;BME280;20156;47.486;12.074;2023-02-13T02:10:33;95119.03;;;-1.69;100.00
33859;BME280;20156;47.486;12.074;2023-02-13T02:13:14;95181.03;;;-1.69;100.00
33859;BME280;20156;47.486;12.074;2023-02-13T02:15:41;95182.22;;;-1.83;100.00
33859;BME280;20156;47.486;12.074;2023-02-13T02:18:16;95159.69;;;-1.77;100.00
33859;BME280;20156;47.486;12.074;2023-02-13T02:39:43;95054.91;;;-1.74;100.00
33859;BME280;20156;47.486;12.074;2023-02-13T02:42:33;95048.88;;;-1.73;100.00
33859;BME280;20156;47.486;12.074;2023-02-13T02:45:11;95073.00;;;-1.87;100.00
33859;BME280;20156;47.486;12.074;2023-02-13T02:47:55;95101.94;;;-1.98;100.00
33859;BME280;20156;47.486;12.074;2023-02-13T02:50:52;95072.06;;;-1.76;100.00
33859;BME280;20156;47.486;12.074;2023-02-13T02:56:10;95074.72;;;-1.88;100.00
33859;BME280;20156;47.486;12.074;2023-02-13T02:58:44;95108.66;;;-1.87;100.00
33859;BME280;20156;47.486;12.074;2023-02-13T03:01:31;95176.09;;;-2.01;100.00
33859;BME280;20156;47.486;12.074;2023-02-13T03:04:24;95175.44;;;-1.93;100.00
33859;BME280;20156;47.486;12.074;2023-02-13T03:07:13;95163.16;;;-1.78;100.00
33859;BME280;20156;47.486;12.074;2023-02-13T03:09:43;95153.50;;;-1.75;100.00
33859;BME280;20156;47.486;12.074;2023-02-13T03:12:43;95132.50;;;-1.67;100.00
33859;BME280;20156;47.486;12.074;2023-02-13T03:15:28;95111.97;;;-1.66;100.00
33859;BME280;20156;47.486;12.074;2023-02-13T03:17:55;95137.53;;;-1.77;100.00
33859;BME280;20156;47.486;12.074;2023-02-13T03:21:07;95149.47;;;-1.77;100.00
33859;BME280;20156;47.486;12.074;2023-02-13T03:26:35;95194.50;;;-1.88;100.00
33859;BME280;20156;47.486;12.074;2023-02-13T03:29:48;95207.63;;;-1.92;100.00
33859;BME280;20156;47.486;12.074;2023-02-13T03:38:18;95289.28;;;-2.35;100.00
33859;BME280;20156;47.486;12.074;2023-02-13T03:40:59;95276.94;;;-2.19;100.00
33859;BME280;20156;47.486;12.074;2023-02-13T03:46:56;95489.41;;;-2.22;100.00
33859;BME280;20156;47.486;12.074;2023-02-13T03:49:27;95467.63;;;-2.15;100.00
33859;BME280;20156;47.486;12.074;2023-02-13T03:52:17;95449.13;;;-2.17;100.00
33859;BME280;20156;47.486;12.074;2023-02-13T03:54:58;95445.16;;;-2.21;100.00
33859;BME280;20156;47.486;12.074;2023-02-13T03:57:44;95434.50;;;-2.15;100.00
33859;BME280;20156;47.486;12.074;2023-02-13T04:00:34;95446.13;;;-2.33;100.00
33859;BME280;20156;47.486;12.074;2023-02-13T04:03:07;95457.13;;;-2.44;100.00
33859;BME280;20156;47.486;12.074;2023-02-13T04:05:40;95459.00;;;-2.46;100.00
33859;BME280;20156;47.486;12.074;2023-02-13T04:08:07;95474.59;;;-2.39;100.00
33859;BME280;20156;47.486;12.074;2023-02-13T04:10:36;95447.94;;;-2.24;100.00
33859;BME280;20156;47.486;12.074;2023-02-13T04:13:37;95555.88;;;-2.14;100.00
33859;BME280;20156;47.486;12.074;2023-02-13T04:16:15;95544.88;;;-2.14;100.00
33859;BME280;20156;47.486;12.074;2023-02-13T04:18:43;95556.09;;;-2.39;100.00
33859;BME280;20156;47.486;12.074;2023-02-13T04:21:09;95561.75;;;-2.35;100.00
33859;BME280;20156;47.486;12.074;2023-02-13T04:23:34;95564.66;;;-2.40;100.00
33859;BME280;20156;47.486;12.074;2023-02-13T04:26:03;95568.25;;;-2.31;100.00
33859;BME280;20156;47.486;12.074;2023-02-13T04:28:29;95565.94;;;-2.23;100.00
33859;BME280;20156;47.486;12.074;2023-02-13T04:30:55;95568.81;;;-2.28;100.00
33859;BME280;20156;47.486;12.074;2023-02-13T04:33:21;95572.66;;;-2.33;100.00
33859;BME280;20156;47.486;12.074;2023-02-13T04:35:46;95562.69;;;-2.25;100.00
33859;BME280;20156;47.486;12.074;2023-02-13T04:38:12;95560.59;;;-2.20;100.00
33859;BME280;20156;47.486;12.074;2023-02-13T04:40:37;95561.31;;;-2.18;100.00
33859;BME280;20156;47.486;12.074;2023-02-13T04:43:03;95541.25;;;-2.00;100.00
33859;BME280;20156;47.486;12.074;2023-02-13T04:45:28;95537.78;;;-1.99;100.00
33859;BME280;20156;47.486;12.074;2023-02-13T04:47:55;95551.44;;;-2.00;100.00
33859;BME280;20156;47.486;12.074;2023-02-13T04:50:21;95583.78;;;-2.34;100.00
33859;BME280;20156;47.486;12.074;2023-02-13T04:52:52;95618.00;;;-2.50;100.00
33859;BME280;20156;47.486;12.074;2023-02-13T04:55:18;95642.50;;;-2.60;100.00
33859;BME280;20156;47.486;12.074;2023-02-13T04:57:43;95643.13;;;-2.45;100.00
33859;BME280;20156;47.486;12.074;2023-02-13T05:00:09;95649.19;;;-2.35;100.00
33859;BME280;20156;47.486;12.074;2023-02-13T05:02:35;95644.19;;;-2.25;100.00
33859;BME280;20156;47.486;12.074;2023-02-13T05:05:00;95642.47;;;-2.14;100.00
33859;BME280;20156;47.486;12.074;2023-02-13T05:07:26;95651.50;;;-2.21;100.00
33859;BME280;20156;47.486;12.074;2023-02-13T05:09:51;95679.75;;;-2.35;100.00
33859;BME280;20156;47.486;12.074;2023-02-13T05:12:17;95704.47;;;-2.48;100.00
33859;BME280;20156;47.486;12.074;2023-02-13T05:14:42;95728.72;;;-2.66;100.00
33859;BME280;20156;47.486;12.074;2023-02-13T05:17:07;95763.13;;;-2.74;100.00
33859;BME280;20156;47.486;12.074;2023-02-13T05:19:33;95748.69;;;-2.49;100.00
33859;BME280;20156;47.486;12.074;2023-02-13T05:21:58;95737.59;;;-2.37;100.00
33859;BME280;20156;47.486;12.074;2023-02-13T05:24:42;95717.94;;;-2.24;100.00
33859;BME280;20156;47.486;12.074;2023-02-13T05:27:07;95706.41;;;-2.17;100.00
33859;BME280;20156;47.486;12.074;2023-02-13T05:29:33;95732.31;;;-2.58;100.00
33859;BME280;20156;47.486;12.074;2023-02-13T05:31:58;95767.84;;;-2.80;100.00
33859;BME280;20156;47.486;12.074;2023-02-13T05:34:26;95766.13;;;-2.80;100.00
33859;BME280;20156;47.486;12.074;2023-02-13T05:36:52;95737.78;;;-2.51;100.00
33859;BME280;20156;47.486;12.074;2023-02-13T05:39:18;95723.03;;;-2.35;100.00
33859;BME280;20156;47.486;12.074;2023-02-13T05:41:44;95708.66;;;-2.36;100.00
33859;BME280;20156;47.486;12.074;2023-02-13T05:44:10;95716.00;;;-2.55;100.00
33859;BME280;20156;47.486;12.074;2023-02-13T05:46:38;95693.38;;;-2.36;100.00
33859;BME280;20156;47.486;12.074;2023-02-13T05:49:04;95685.66;;;-2.34;100.00
33859;BME280;20156;47.486;12.074;2023-02-13T05:51:30;95683.63;;;-2.42;100.00
33859;BME280;20156;47.486;12.074;2023-02-13T05:53:55;95677.88;;;-2.33;100.00
33859;BME280;20156;47.486;12.074;2023-02-13T05:56:21;95678.78;;;-2.45;100.00
33859;BME280;20156;47.486;12.074;2023-02-13T05:58:46;95713.09;;;-2.86;100.00
33859;BME280;20156;47.486;12.074;2023-02-13T06:01:15;95733.41;;;-2.97;100.00
33859;BME280;20156;47.486;12.074;2023-02-13T06:03:40;95736.00;;;-2.86;100.00
33859;BME280;20156;47.486;12.074;2023-02-13T06:06:05;95726.97;;;-2.66;100.00
33859;BME280;20156;47.486;12.074;2023-02-13T06:08:31;95710.59;;;-2.51;100.00
33859;BME280;20156;47.486;12.074;2023-02-13T06:10:56;95700.19;;;-2.48;100.00
33859;BME280;20156;47.486;12.074;2023-02-13T06:13:22;95698.56;;;-2.49;100.00
33859;BME280;20156;47.486;12.074;2023-02-13T06:15:48;95684.56;;;-2.43;100.00
33859;BME280;20156;47.486;12.074;2023-02-13T06:18:15;95685.38;;;-2.43;100.00
33859;BME280;20156;47.486;12.074;2023-02-13T06:20:40;95694.41;;;-2.50;100.00
33859;BME280;20156;47.486;12.074;2023-02-13T06:23:06;95685.94;;;-2.50;100.00
33859;BME280;20156;47.486;12.074;2023-02-13T06:25:33;95688.84;;;-2.44;100.00
33859;BME280;20156;47.486;12.074;2023-02-13T06:28:00;95677.78;;;-2.31;100.00
33859;BME280;20156;47.486;12.074;2023-02-13T06:30:25;95677.88;;;-2.33;100.00
33859;BME280;20156;47.486;12.074;2023-02-13T06:32:51;95680.06;;;-2.39;100.00
33859;BME280;20156;47.486;12.074;2023-02-13T06:35:17;95687.25;;;-2.33;100.00
33859;BME280;20156;47.486;12.074;2023-02-13T06:37:42;95684.25;;;-2.27;100.00
33859;BME280;20156;47.486;12.074;2023-02-13T06:40:08;95680.00;;;-2.16;100.00
33859;BME280;20156;47.486;12.074;2023-02-13T06:42:34;95715.00;;;-2.42;100.00
33859;BME280;20156;47.486;12.074;2023-02-13T06:45:00;95746.78;;;-2.58;100.00
33859;BME280;20156;47.486;12.074;2023-02-13T06:47:25;95760.44;;;-2.59;100.00
33859;BME280;20156;47.486;12.074;2023-02-13T06:49:50;95773.31;;;-2.50;100.00
33859;BME280;20156;47.486;12.074;2023-02-13T06:52:16;95771.63;;;-2.38;100.00
33859;BME280;20156;47.486;12.074;2023-02-13T06:54:41;95804.25;;;-2.43;100.00
33859;BME280;20156;47.486;12.074;2023-02-13T06:57:07;95815.47;;;-2.46;100.00
33859;BME280;20156;47.486;12.074;2023-02-13T06:59:32;95823.88;;;-2.32;100.00
33859;BME280;20156;47.486;12.074;2023-02-13T07:01:58;95824.56;;;-2.30;100.00
33859;BME280;20156;47.486;12.074;2023-02-13T07:04:23;95823.38;;;-2.14;100.00
33859;BME280;20156;47.486;12.074;2023-02-13T07:06:49;95822.78;;;-2.06;100.00
33859;BME280;20156;47.486;12.074;2023-02-13T07:09:14;95825.13;;;-2.03;100.00
33859;BME280;20156;47.486;12.074;2023-02-13T07:11:41;95822.50;;;-2.01;100.00
33859;BME280;20156;47.486;12.074;2023-02-13T07:14:07;95835.13;;;-2.00;100.00
33859;BME280;20156;47.486;12.074;2023-02-13T07:16:32;95823.31;;;-1.90;100.00
33859;BME280;20156;47.486;12.074;2023-02-13T07:18:58;95841.13;;;-2.01;100.00
33859;BME280;20156;47.486;12.074;2023-02-13T07:21:23;95875.19;;;-2.26;100.00
33859;BME280;20156;47.486;12.074;2023-02-13T07:23:50;95878.91;;;-2.19;100.00
33859;BME280;20156;47.486;12.074;2023-02-13T07:26:15;95892.19;;;-2.26;100.00
33859;BME280;20156;47.486;12.074;2023-02-13T07:28:41;95891.22;;;-2.13;100.00
33859;BME280;20156;47.486;12.074;2023-02-13T07:31:06;95884.69;;;-1.93;100.00
33859;BME280;20156;47.486;12.074;2023-02-13T07:33:35;95889.56;;;-1.90;100.00
33859;BME280;20156;47.486;12.074;2023-02-13T07:36:00;95897.78;;;-1.97;100.00
33859;BME280;20156;47.486;12.074;2023-02-13T07:38:29;95897.56;;;-1.94;100.00
33859;BME280;20156;47.486;12.074;2023-02-13T07:40:59;95886.50;;;-1.82;100.00
33859;BME280;20156;47.486;12.074;2023-02-13T07:43:25;95880.88;;;-1.63;100.00
33859;BME280;20156;47.486;12.074;2023-02-13T07:45:51;95873.56;;;-1.57;100.00
33859;BME280;20156;47.486;12.074;2023-02-13T07:48:23;95891.72;;;-1.72;100.00
33859;BME280;20156;47.486;12.074;2023-02-13T07:50:51;95921.69;;;-1.87;100.00
33859;BME280;20156;47.486;12.074;2023-02-13T07:53:16;95933.41;;;-1.85;100.00
33859;BME280;20156;47.486;12.074;2023-02-13T07:55:42;95937.63;;;-1.72;100.00
33859;BME280;20156;47.486;12.074;2023-02-13T07:58:07;95922.94;;;-1.58;100.00
33859;BME280;20156;47.486;12.074;2023-02-13T08:00:33;95919.13;;;-1.52;100.00
33859;BME280;20156;47.486;12.074;2023-02-13T08:02:59;95911.81;;;-1.57;100.00
33859;BME280;20156;47.486;12.074;2023-02-13T08:05:24;95935.47;;;-1.66;100.00
33859;BME280;20156;47.486;12.074;2023-02-13T08:07:51;95937.38;;;-1.69;100.00
33859;BME280;20156;47.486;12.074;2023-02-13T08:10:16;95944.63;;;-1.52;100.00
33859;BME280;20156;47.486;12.074;2023-02-13T08:13:01;95944.78;;;-1.42;100.00
33859;BME280;20156;47.486;12.074;2023-02-13T08:15:26;95927.09;;;-1.33;100.00
33859;BME280;20156;47.486;12.074;2023-02-13T08:17:52;95936.38;;;-1.32;100.00
33859;BME280;20156;47.486;12.074;2023-02-13T08:20:17;95931.84;;;-1.28;100.00
33859;BME280;20156;47.486;12.074;2023-02-13T08:22:42;95936.13;;;-1.29;100.00
33859;BME280;20156;47.486;12.074;2023-02-13T08:25:08;95947.69;;;-1.36;100.00
33859;BME280;20156;47.486;12.074;2023-02-13T08:27:34;95976.50;;;-1.58;100.00
33859;BME280;20156;47.486;12.074;2023-02-13T08:29:59;95966.13;;;-1.43;100.00
33859;BME280;20156;47.486;12.074;2023-02-13T08:32:25;95952.59;;;-1.33;100.00
33859;BME280;20156;47.486;12.074;2023-02-13T08:34:51;95941.84;;;-1.14;100.00
33859;BME280;20156;47.486;12.074;2023-02-13T08:37:17;95931.66;;;-1.03;100.00
33859;BME280;20156;47.486;12.074;2023-02-13T08:39:43;95960.72;;;-1.28;100.00
33859;BME280;20156;47.486;12.074;2023-02-13T08:42:08;95965.13;;;-1.30;100.00
33859;BME280;20156;47.486;12.074;2023-02-13T08:44:34;95953.81;;;-1.14;100.00
33859;BME280;20156;47.486;12.074;2023-02-13T08:47:00;95951.88;;;-1.00;100.00
33859;BME280;20156;47.486;12.074;2023-02-13T08:49:29;95951.63;;;-0.97;100.00
33859;BME280;20156;47.486;12.074;2023-02-13T08:51:54;95956.84;;;-0.87;100.00
33859;BME280;20156;47.486;12.074;2023-02-13T08:54:20;95960.69;;;-0.81;100.00
33859;BME280;20156;47.486;12.074;2023-02-13T08:56:46;95959.31;;;-0.74;100.00
33859;BME280;20156;47.486;12.074;2023-02-13T08:59:11;95963.72;;;-0.54;100.00
33859;BME280;20156;47.486;12.074;2023-02-13T09:01:37;95954.63;;;-0.36;100.00
33859;BME280;20156;47.486;12.074;2023-02-13T09:04:03;95995.41;;;-0.68;100.00
33859;BME280;20156;47.486;12.074;2023-02-13T09:06:28;96014.66;;;-0.75;100.00
33859;BME280;20156;47.486;12.074;2023-02-13T09:08:54;96009.13;;;-0.57;100.00
33859;BME280;20156;47.486;12.074;2023-02-13T09:11:20;95993.31;;;-0.18;100.00
33859;BME280;20156;47.486;12.074;2023-02-13T09:13:56;95982.69;;;0.20;100.00
33859;BME280;20156;47.486;12.074;2023-02-13T09:16:22;95978.44;;;0.63;100.00
33859;BME280;20156;47.486;12.074;2023-02-13T09:18:48;95982.13;;;1.02;100.00
33859;BME280;20156;47.486;12.074;2023-02-13T09:21:14;96005.59;;;1.28;100.00
33859;BME280;20156;47.486;12.074;2023-02-13T09:23:40;96045.31;;;1.43;100.00
33859;BME280;20156;47.486;12.074;2023-02-13T09:26:08;96094.84;;;1.43;100.00
33859;BME280;20156;47.486;12.074;2023-02-13T09:28:35;96125.16;;;1.59;100.00
33859;BME280;20156;47.486;12.074;2023-02-13T09:31:12;96136.16;;;1.92;100.00
33859;BME280;20156;47.486;12.074;2023-02-13T09:33:41;96159.56;;;2.29;100.00
33859;BME280;20156;47.486;12.074;2023-02-13T09:36:12;96163.69;;;2.51;100.00
33859;BME280;20156;47.486;12.074;2023-02-13T09:38:39;96200.63;;;2.59;100.00
33859;BME280;20156;47.486;12.074;2023-02-13T09:41:25;96223.19;;;2.86;100.00
33859;BME280;20156;47.486;12.074;2023-02-13T09:44:05;96236.22;;;3.14;100.00
33859;BME280;20156;47.486;12.074;2023-02-13T09:46:37;96249.94;;;3.33;100.00
33859;BME280;20156;47.486;12.074;2023-02-13T09:49:12;96276.22;;;3.37;100.00
33859;BME280;20156;47.486;12.074;2023-02-13T09:51:42;96303.31;;;3.60;100.00
33859;BME280;20156;47.486;12.074;2023-02-13T09:54:13;96332.44;;;3.61;100.00
33859;BME280;20156;47.486;12.074;2023-02-13T09:56:55;96345.06;;;3.83;100.00
33859;BME280;20156;47.486;12.074;2023-02-13T10:16:16;96411.78;;;4.35;100.00
33859;BME280;20156;47.486;12.074;2023-02-13T10:21:26;96418.78;;;5.00;100.00
33859;BME280;20156;47.486;12.074;2023-02-13T10:26:45;96423.91;;;5.29;100.00
33859;BME280;20156;47.486;12.074;2023-02-13T10:29:25;96433.31;;;5.58;100.00
33859;BME280;20156;47.486;12.074;2023-02-13T10:32:18;96432.22;;;5.60;100.00
33859;BME280;20156;47.486;12.074;2023-02-13T10:34:46;96433.31;;;5.85;100.00
33859;BME280;20156;47.486;12.074;2023-02-13T10:37:17;96436.94;;;6.02;100.00
33859;BME280;20156;47.486;12.074;2023-02-13T10:39:45;96433.53;;;6.29;100.00
33859;BME280;20156;47.486;12.074;2023-02-13T10:50:58;96438.69;;;6.82;100.00
33859;BME280;20156;47.486;12.074;2023-02-13T10:58:52;96459.25;;;6.21;100.00
33859;BME280;20156;47.486;12.074;2023-02-13T11:01:26;96456.25;;;6.25;100.00
33859;BME280;20156;47.486;12.074;2023-02-13T11:04:11;96447.78;;;6.51;100.00
33859;BME280;20156;47.486;12.074;2023-02-13T11:06:45;96432.13;;;6.52;100.00
33859;BME280;20156;47.486;12.074;2023-02-13T11:09:13;96427.09;;;6.51;100.00
33859;BME280;20156;47.486;12.074;2023-02-13T11:11:42;96423.34;;;6.81;100.00
33859;BME280;20156;47.486;12.074;2023-02-13T11:14:19;96415.63;;;7.07;100.00
33859;BME280;20156;47.486;12.074;2023-02-13T11:17:00;96416.13;;;7.36;100.00
33859;BME280;20156;47.486;12.074;2023-02-13T11:22:11;96404.38;;;7.50;100.00
33859;BME280;20156;47.486;12.074;2023-02-13T11:24:39;96407.31;;;7.55;100.00
33859;BME280;20156;47.486;12.074;2023-02-13T11:27:07;96413.91;;;7.75;100.00
33859;BME280;20156;47.486;12.074;2023-02-13T11:29:50;96407.81;;;7.93;100.00
33859;BME280;20156;47.486;12.074;2023-02-13T11:32:20;96406.72;;;8.03;100.00
33859;BME280;20156;47.486;12.074;2023-02-13T11:34:48;96403.34;;;8.19;100.00
33859;BME280;20156;47.486;12.074;2023-02-13T11:37:18;96404.56;;;8.49;100.00
33859;BME280;20156;47.486;12.074;2023-02-13T11:39:46;96388.69;;;8.52;100.00
33859;BME280;20156;47.486;12.074;2023-02-13T11:42:31;96387.47;;;8.14;100.00
33859;BME280;20156;47.486;12.074;2023-02-13T11:45:04;96399.50;;;8.23;100.00
33859;BME280;20156;47.486;12.074;2023-02-13T11:47:41;96405.81;;;7.78;100.00
33859;BME280;20156;47.486;12.074;2023-02-13T11:50:30;96405.78;;;7.70;100.00
33859;BME280;20156;47.486;12.074;2023-02-13T11:55:33;96386.09;;;7.85;100.00
33859;BME280;20156;47.486;12.074;2023-02-13T11:58:23;96399.50;;;7.81;100.00
33859;BME280;20156;47.486;12.074;2023-02-13T12:00:49;96402.84;;;8.15;100.00
33859;BME280;20156;47.486;12.074;2023-02-13T12:06:04;96383.47;;;8.36;100.00
33859;BME280;20156;47.486;12.074;2023-02-13T12:08:35;96381.72;;;8.44;100.00
33859;BME280;20156;47.486;12.074;2023-02-13T12:11:06;96376.81;;;8.25;100.00
33859;BME280;20156;47.486;12.074;2023-02-13T12:13:36;96357.31;;;7.97;100.00
33859;BME280;20156;47.486;12.074;2023-02-13T12:16:29;96362.69;;;8.20;100.00
33859;BME280;20156;47.486;12.074;2023-02-13T12:18:55;96388.22;;;8.49;100.00
33859;BME280;20156;47.486;12.074;2023-02-13T12:21:43;96377.19;;;8.79;100.00
33859;BME280;20156;47.486;12.074;2023-02-13T12:24:35;96371.50;;;9.08;100.00
33859;BME280;20156;47.486;12.074;2023-02-13T12:27:18;96369.03;;;9.23;100.00
33859;BME280;20156;47.486;12.074;2023-02-13T12:40:34;96336.69;;;9.81;100.00
33859;BME280;20156;47.486;12.074;2023-02-13T12:43:15;96343.16;;;10.16;100.00
33859;BME280;20156;47.486;12.074;2023-02-13T12:46:05;96344.16;;;10.38;100.00
33859;BME280;20156;47.486;12.074;2023-02-13T12:54:26;96323.84;;;10.41;100.00
33859;BME280;20156;47.486;12.074;2023-02-13T13:07:25;96307.38;;;10.18;100.00
33859;BME280;20156;47.486;12.074;2023-02-13T13:10:28;96307.66;;;10.00;100.00
33859;BME280;20156;47.486;12.074;2023-02-13T13:13:36;96310.84;;;10.10;100.00
33859;BME280;20156;47.486;12.074;2023-02-13T13:16:26;96314.13;;;10.04;100.00
33859;BME280;20156;47.486;12.074;2023-02-13T13:21:28;96296.50;;;10.45;100.00
33859;BME280;20156;47.486;12.074;2023-02-13T13:26:44;96285.84;;;10.32;100.00
33859;BME280;20156;47.486;12.074;2023-02-13T13:29:19;96290.25;;;10.32;100.00
33859;BME280;20156;47.486;12.074;2023-02-13T13:31:54;96293.84;;;10.31;100.00
33859;BME280;20156;47.486;12.074;2023-02-13T13:34:23;96285.31;;;10.37;100.00
33859;BME280;20156;47.486;12.074;2023-02-13T13:37:17;96293.59;;;10.78;100.00
33859;BME280;20156;47.486;12.074;2023-02-13T13:42:34;96298.97;;;10.39;100.00
33859;BME280;20156;47.486;12.074;2023-02-13T13:51:08;96308.91;;;10.73;100.00
33859;BME280;20156;47.486;12.074;2023-02-13T13:56:24;96316.00;;;11.17;100.00
33859;BME280;20156;47.486;12.074;2023-02-13T13:58:50;96327.47;;;11.22;100.00
33859;BME280;20156;47.486;12.074;2023-02-13T14:01:30;96309.06;;;11.24;100.00
33859;BME280;20156;47.486;12.074;2023-02-13T14:04:01;96307.97;;;11.03;100.00
33859;BME280;20156;47.486;12.074;2023-02-13T14:11:52;96319.47;;;10.57;100.00
33859;BME280;20156;47.486;12.074;2023-02-13T14:17:13;96317.81;;;10.41;100.00
33859;BME280;20156;47.486;12.074;2023-02-13T14:19:42;96326.38;;;10.27;100.00
33859;BME280;20156;47.486;12.074;2023-02-13T14:22:26;96335.06;;;10.11;100.00
33859;BME280;20156;47.486;12.074;2023-02-13T14:24:56;96319.25;;;9.89;100.00
33859;BME280;20156;47.486;12.074;2023-02-13T14:27:29;96320.88;;;9.90;100.00
33859;BME280;20156;47.486;12.074;2023-02-13T14:29:56;96331.31;;;9.82;100.00
33859;BME280;20156;47.486;12.074;2023-02-13T14:32:31;96361.19;;;9.86;100.00
33859;BME280;20156;47.486;12.074;2023-02-13T14:35:17;96335.91;;;9.72;100.00
33859;BME280;20156;47.486;12.074;2023-02-13T14:37:53;96313.72;;;9.92;100.00
33859;BME280;20156;47.486;12.074;2023-02-13T14:42:57;96304.53;;;9.82;100.00
33859;BME280;20156;47.486;12.074;2023-02-13T14:45:28;96305.63;;;9.87;100.00
33859;BME280;20156;47.486;12.074;2023-02-13T14:47:57;96315.13;;;9.72;100.00
33859;BME280;20156;47.486;12.074;2023-02-13T14:50:39;96330.69;;;9.80;100.00
33859;BME280;20156;47.486;12.074;2023-02-13T14:53:17;96348.25;;;9.70;100.00
33859;BME280;20156;47.486;12.074;2023-02-13T14:55:47;96368.84;;;9.32;100.00
33859;BME280;20156;47.486;12.074;2023-02-13T14:58:31;96380.56;;;9.12;100.00
33859;BME280;20156;47.486;12.074;2023-02-13T15:01:16;96394.53;;;9.11;100.00
33859;BME280;20156;47.486;12.074;2023-02-13T15:03:48;96402.31;;;8.70;100.00
33859;BME280;20156;47.486;12.074;2023-02-13T15:06:34;96406.22;;;8.91;100.00
33859;BME280;20156;47.486;12.074;2023-02-13T15:09:04;96405.69;;;8.38;100.00
33859;BME280;20156;47.486;12.074;2023-02-13T15:11:39;96427.31;;;8.13;100.00
33859;BME280;20156;47.486;12.074;2023-02-13T15:14:20;96437.00;;;8.53;100.00